AAL1223 KLAX-KSFO
Flight info
| Callsign | AAL1223 |
|---|---|
| Flight time | 1h 12m |
| Altitude | 34000 |
| Route | SUMMR2 STOKD SERFR SERFR4 |
| Aircraft | A321/M-SDE3FGHIRWY/LB1 |
Departure
| Time | 2026-05-04 05:31 |
|---|---|
| Airport | Los Angeles International Airport (KLAX) |
Arrival
| Time | 2026-05-04 06:44 |
|---|---|
| Airport | San Francisco International Airport (KSFO) |
| Time | Latitude | Longitude | Altitude | Speed | Heading |
|---|---|---|---|---|---|
| 2026-05-04 05:06 | 33.94701 | -118.40781 | 126 ft | 0 kts | 173° |
| 2026-05-04 05:22 | 33.94702 | -118.40781 | 126 ft | 2 kts | 173° |
| 2026-05-04 05:23 | 33.94720 | -118.40784 | 120 ft | 3 kts | 173° |
| 2026-05-04 05:23 | 33.94739 | -118.40787 | 123 ft | 3 kts | 173° |
| 2026-05-04 05:23 | 33.94758 | -118.40792 | 124 ft | 3 kts | 147° |
| 2026-05-04 05:23 | 33.94772 | -118.40807 | 123 ft | 3 kts | 117° |
| 2026-05-04 05:24 | 33.94778 | -118.40827 | 123 ft | 3 kts | 90° |
| 2026-05-04 05:24 | 33.94775 | -118.40849 | 122 ft | 3 kts | 60° |
| 2026-05-04 05:24 | 33.94766 | -118.40868 | 121 ft | 3 kts | 58° |
| 2026-05-04 05:24 | 33.94757 | -118.40887 | 120 ft | 3 kts | 77° |
| 2026-05-04 05:25 | 33.94757 | -118.40889 | 120 ft | 0 kts | 77° |
| 2026-05-04 05:26 | 33.94764 | -118.40838 | 122 ft | 12 kts | 81° |
| 2026-05-04 05:26 | 33.94774 | -118.40696 | 126 ft | 20 kts | 90° |
| 2026-05-04 05:27 | 33.94776 | -118.40671 | 122 ft | 0 kts | 72° |
| 2026-05-04 05:28 | 33.94950 | -118.39925 | 122 ft | 0 kts | 42° |
| 2026-05-04 05:29 | 33.94967 | -118.39916 | 122 ft | 7 kts | 14° |
| 2026-05-04 05:29 | 33.95044 | -118.39944 | 125 ft | 15 kts | 308° |
| 2026-05-04 05:31 | 33.94292 | -118.47974 | 2375 ft | 213 kts | 268° |
| 2026-05-04 05:31 | 33.94230 | -118.49838 | 2533 ft | 238 kts | 269° |
| 2026-05-04 05:32 | 33.94149 | -118.51913 | 3057 ft | 250 kts | 266° |
| 2026-05-04 05:32 | 33.94010 | -118.53995 | 3788 ft | 254 kts | 265° |
| 2026-05-04 05:32 | 33.93841 | -118.56158 | 4527 ft | 259 kts | 264° |
| 2026-05-04 05:33 | 33.93482 | -118.60535 | 5594 ft | 265 kts | 264° |
| 2026-05-04 05:33 | 33.93301 | -118.62748 | 6402 ft | 266 kts | 264° |
| 2026-05-04 05:33 | 33.93119 | -118.64979 | 7079 ft | 269 kts | 264° |
| 2026-05-04 05:33 | 33.92940 | -118.67232 | 7767 ft | 271 kts | 264° |
| 2026-05-04 05:34 | 33.92763 | -118.69502 | 8452 ft | 274 kts | 264° |
| 2026-05-04 05:34 | 33.92586 | -118.71806 | 9157 ft | 276 kts | 263° |
| 2026-05-04 05:34 | 33.92409 | -118.74108 | 9845 ft | 278 kts | 263° |
| 2026-05-04 05:34 | 33.92229 | -118.76422 | 10305 ft | 288 kts | 263° |
| 2026-05-04 05:35 | 33.92032 | -118.78900 | 10430 ft | 308 kts | 263° |
| 2026-05-04 05:35 | 33.91821 | -118.81559 | 10559 ft | 327 kts | 263° |
| 2026-05-04 05:35 | 33.91719 | -118.84347 | 10895 ft | 338 kts | 270° |
| 2026-05-04 05:35 | 33.91820 | -118.87196 | 11442 ft | 342 kts | 270° |
| 2026-05-04 05:36 | 33.91910 | -118.90073 | 12028 ft | 345 kts | 270° |
| 2026-05-04 05:36 | 33.91993 | -118.92977 | 12633 ft | 347 kts | 269° |
| 2026-05-04 05:36 | 33.92074 | -118.95883 | 13225 ft | 350 kts | 269° |
| 2026-05-04 05:36 | 33.92185 | -118.98820 | 13806 ft | 353 kts | 273° |
| 2026-05-04 05:37 | 33.92682 | -119.01705 | 14321 ft | 359 kts | 284° |
| 2026-05-04 05:37 | 33.93695 | -119.04483 | 14877 ft | 365 kts | 295° |
| 2026-05-04 05:37 | 33.95040 | -119.07094 | 15436 ft | 366 kts | 297° |
| 2026-05-04 05:38 | 33.97737 | -119.12304 | 16529 ft | 367 kts | 296° |
| 2026-05-04 05:38 | 33.99089 | -119.14924 | 17055 ft | 368 kts | 296° |
| 2026-05-04 05:38 | 34.00526 | -119.17484 | 17556 ft | 374 kts | 302° |
| 2026-05-04 05:38 | 34.02343 | -119.19737 | 18032 ft | 384 kts | 313° |
| 2026-05-04 05:39 | 34.04513 | -119.21668 | 18470 ft | 389 kts | 317° |
| 2026-05-04 05:39 | 34.08948 | -119.25462 | 19202 ft | 392 kts | 317° |
| 2026-05-04 05:39 | 34.11169 | -119.27374 | 19553 ft | 394 kts | 316° |
| 2026-05-04 05:40 | 34.15652 | -119.31237 | 20245 ft | 397 kts | 316° |
| 2026-05-04 05:40 | 34.17911 | -119.33182 | 20585 ft | 399 kts | 316° |
| 2026-05-04 05:40 | 34.20167 | -119.35125 | 20923 ft | 400 kts | 316° |
| 2026-05-04 05:41 | 34.22444 | -119.37089 | 21281 ft | 402 kts | 316° |
| 2026-05-04 05:41 | 34.24722 | -119.39054 | 21632 ft | 403 kts | 316° |
| 2026-05-04 05:41 | 34.27016 | -119.41034 | 21992 ft | 405 kts | 315° |
| 2026-05-04 05:41 | 34.29304 | -119.43015 | 22350 ft | 406 kts | 315° |
| 2026-05-04 05:42 | 34.31583 | -119.44988 | 22718 ft | 408 kts | 315° |
| 2026-05-04 05:42 | 34.33140 | -119.46336 | 22970 ft | 409 kts | 315° |
| 2026-05-04 05:42 | 34.35461 | -119.48348 | 23346 ft | 410 kts | 314° |
| 2026-05-04 05:42 | 34.37778 | -119.50356 | 23685 ft | 412 kts | 314° |
| 2026-05-04 05:43 | 34.40110 | -119.52387 | 23987 ft | 412 kts | 313° |
| 2026-05-04 05:43 | 34.42255 | -119.54645 | 24277 ft | 403 kts | 305° |
| 2026-05-04 05:43 | 34.44198 | -119.57040 | 24564 ft | 404 kts | 304° |
| 2026-05-04 05:45 | 34.58207 | -119.74290 | 26518 ft | 415 kts | 304° |
| 2026-05-04 05:45 | 34.60234 | -119.76799 | 26798 ft | 416 kts | 304° |
| 2026-05-04 05:47 | 34.74625 | -119.94624 | 28544 ft | 429 kts | 304° |
| 2026-05-04 05:47 | 34.76719 | -119.97223 | 28764 ft | 431 kts | 304° |
| 2026-05-04 05:47 | 34.78817 | -119.99828 | 29003 ft | 432 kts | 304° |
| 2026-05-04 05:48 | 34.80934 | -120.02457 | 29219 ft | 433 kts | 304° |
| 2026-05-04 05:48 | 34.83035 | -120.05071 | 29431 ft | 434 kts | 304° |
| 2026-05-04 05:48 | 34.85157 | -120.07712 | 29618 ft | 435 kts | 304° |
| 2026-05-04 05:48 | 34.87254 | -120.10325 | 29830 ft | 436 kts | 304° |
| 2026-05-04 05:49 | 34.89376 | -120.12970 | 30107 ft | 435 kts | 304° |
| 2026-05-04 05:49 | 34.91490 | -120.15607 | 30354 ft | 434 kts | 304° |
| 2026-05-04 05:49 | 34.93588 | -120.18227 | 30605 ft | 431 kts | 303° |
| 2026-05-04 05:49 | 34.95673 | -120.20838 | 30869 ft | 429 kts | 303° |
| 2026-05-04 05:51 | 35.09888 | -120.38627 | 32906 ft | 411 kts | 302° |
| 2026-05-04 05:51 | 35.11964 | -120.41043 | 33183 ft | 412 kts | 303° |
| 2026-05-04 05:52 | 35.14078 | -120.43399 | 33455 ft | 411 kts | 303° |
| 2026-05-04 05:52 | 35.16208 | -120.45722 | 33731 ft | 410 kts | 303° |
| 2026-05-04 05:52 | 35.18312 | -120.48012 | 33985 ft | 408 kts | 303° |
| 2026-05-04 05:52 | 35.20443 | -120.50349 | 34073 ft | 404 kts | 303° |
| 2026-05-04 05:54 | 35.36818 | -120.68785 | 34080 ft | 401 kts | 303° |
| 2026-05-04 05:55 | 35.40926 | -120.73421 | 34073 ft | 401 kts | 303° |
| 2026-05-04 05:55 | 35.45033 | -120.78071 | 34070 ft | 402 kts | 303° |
| 2026-05-04 05:56 | 35.49204 | -120.82638 | 34084 ft | 413 kts | 309° |
| 2026-05-04 05:56 | 35.53805 | -120.86892 | 34089 ft | 415 kts | 309° |
| 2026-05-04 05:57 | 35.58428 | -120.91167 | 34085 ft | 416 kts | 309° |
| 2026-05-04 05:57 | 35.63055 | -120.95464 | 34074 ft | 417 kts | 309° |
| 2026-05-04 05:58 | 35.67692 | -120.99776 | 34064 ft | 418 kts | 310° |
| 2026-05-04 05:58 | 35.72341 | -121.04109 | 34060 ft | 420 kts | 310° |
| 2026-05-04 05:59 | 35.76992 | -121.08427 | 34105 ft | 422 kts | 310° |
| 2026-05-04 05:59 | 35.81767 | -121.12665 | 34225 ft | 424 kts | 313° |
| 2026-05-04 06:00 | 35.86705 | -121.16759 | 34149 ft | 432 kts | 314° |
| 2026-05-04 06:00 | 35.91642 | -121.20949 | 34142 ft | 429 kts | 312° |
| 2026-05-04 06:01 | 35.94080 | -121.23090 | 34040 ft | 431 kts | 312° |
| 2026-05-04 06:01 | 35.96526 | -121.25241 | 34070 ft | 433 kts | 312° |
| 2026-05-04 06:03 | 36.11969 | -121.42014 | 34092 ft | 417 kts | 301° |
| 2026-05-04 06:03 | 36.13970 | -121.44649 | 34139 ft | 423 kts | 303° |
| 2026-05-04 06:05 | 36.30333 | -121.61165 | 34285 ft | 453 kts | 319° |
| 2026-05-04 06:05 | 36.36052 | -121.64581 | 34381 ft | 462 kts | 324° |
| 2026-05-04 06:06 | 36.42009 | -121.67628 | 34314 ft | 466 kts | 328° |
| 2026-05-04 06:06 | 36.45111 | -121.68885 | 34148 ft | 470 kts | 332° |
| 2026-05-04 06:06 | 36.48270 | -121.69928 | 34129 ft | 469 kts | 334° |
| 2026-05-04 06:07 | 36.54577 | -121.71730 | 34133 ft | 460 kts | 335° |
| 2026-05-04 06:07 | 36.60756 | -121.73509 | 34107 ft | 453 kts | 336° |
| 2026-05-04 06:08 | 36.66875 | -121.75080 | 34101 ft | 445 kts | 336° |
| 2026-05-04 06:08 | 36.72879 | -121.76640 | 34156 ft | 435 kts | 335° |
| 2026-05-04 06:09 | 36.78587 | -121.78583 | 34280 ft | 419 kts | 329° |
| 2026-05-04 06:11 | 37.04007 | -121.78477 | 33940 ft | 474 kts | 355° |
| 2026-05-04 06:11 | 37.07293 | -121.78245 | 34072 ft | 474 kts | 356° |
| 2026-05-04 06:13 | 37.30143 | -121.70644 | 33760 ft | 513 kts | 28° |
| 2026-05-04 06:14 | 37.44025 | -121.50792 | 33887 ft | 504 kts | 66° |
| 2026-05-04 06:14 | 37.45390 | -121.46775 | 33967 ft | 493 kts | 70° |
| 2026-05-04 06:15 | 37.46542 | -121.42776 | 33979 ft | 479 kts | 68° |
| 2026-05-04 06:15 | 37.48066 | -121.39105 | 33878 ft | 469 kts | 55° |
| 2026-05-04 06:15 | 37.50169 | -121.36027 | 33605 ft | 459 kts | 38° |
| 2026-05-04 06:15 | 37.52766 | -121.33746 | 33254 ft | 450 kts | 24° |
| 2026-05-04 06:16 | 37.55605 | -121.32310 | 32905 ft | 440 kts | 10° |
| 2026-05-04 06:16 | 37.58594 | -121.31780 | 32537 ft | 429 kts | 356° |
| 2026-05-04 06:16 | 37.61528 | -121.32111 | 32209 ft | 418 kts | 343° |
| 2026-05-04 06:16 | 37.64266 | -121.33179 | 31896 ft | 408 kts | 332° |
| 2026-05-04 06:17 | 37.66722 | -121.34871 | 31606 ft | 397 kts | 321° |
| 2026-05-04 06:17 | 37.68813 | -121.37064 | 31332 ft | 387 kts | 311° |
| 2026-05-04 06:17 | 37.70498 | -121.39657 | 31069 ft | 377 kts | 300° |
| 2026-05-04 06:17 | 37.71752 | -121.42541 | 30479 ft | 378 kts | 290° |
| 2026-05-04 06:18 | 37.72550 | -121.45755 | 29438 ft | 392 kts | 279° |
| 2026-05-04 06:18 | 37.72870 | -121.49234 | 28358 ft | 403 kts | 269° |
| 2026-05-04 06:18 | 37.72724 | -121.52811 | 27368 ft | 413 kts | 261° |
| 2026-05-04 06:20 | 37.60207 | -121.72154 | 22107 ft | 422 kts | 202° |
| 2026-05-04 06:20 | 37.57490 | -121.73523 | 21445 ft | 419 kts | 196° |
| 2026-05-04 06:21 | 37.46278 | -121.75318 | 19125 ft | 399 kts | 175° |
| 2026-05-04 06:21 | 37.43537 | -121.74946 | 18608 ft | 393 kts | 170° |
| 2026-05-04 06:22 | 37.40868 | -121.74297 | 18077 ft | 387 kts | 166° |
| 2026-05-04 06:22 | 37.38255 | -121.73655 | 17611 ft | 379 kts | 174° |
| 2026-05-04 06:25 | 37.21928 | -122.01621 | 11582 ft | 334 kts | 294° |
| 2026-05-04 06:25 | 37.23082 | -122.04067 | 11529 ft | 318 kts | 307° |
| 2026-05-04 06:26 | 37.24590 | -122.06009 | 11445 ft | 304 kts | 321° |
| 2026-05-04 06:26 | 37.26368 | -122.07365 | 11122 ft | 299 kts | 337° |
| 2026-05-04 06:26 | 37.28354 | -122.08134 | 10683 ft | 300 kts | 349° |
| 2026-05-04 06:26 | 37.30428 | -122.08433 | 10278 ft | 299 kts | 358° |
| 2026-05-04 06:27 | 37.38261 | -122.05321 | 8538 ft | 294 kts | 31° |
| 2026-05-04 06:28 | 37.39713 | -122.04275 | 8269 ft | 290 kts | 32° |
| 2026-05-04 06:28 | 37.41306 | -122.03116 | 7993 ft | 287 kts | 32° |
| 2026-05-04 06:28 | 37.42468 | -122.02276 | 7777 ft | 284 kts | 33° |
| 2026-05-04 06:29 | 37.44690 | -122.00558 | 7343 ft | 281 kts | 33° |
| 2026-05-04 06:29 | 37.46519 | -121.99733 | 6942 ft | 286 kts | 359° |
| 2026-05-04 06:29 | 37.48326 | -122.00731 | 6292 ft | 295 kts | 310° |
| 2026-05-04 06:29 | 37.49134 | -122.03014 | 5940 ft | 283 kts | 273° |
| 2026-05-04 06:30 | 37.49375 | -122.05481 | 5542 ft | 282 kts | 274° |
| 2026-05-04 06:30 | 37.49496 | -122.07087 | 5410 ft | 275 kts | 264° |
| 2026-05-04 06:30 | 37.48903 | -122.09242 | 5343 ft | 253 kts | 230° |
| 2026-05-04 06:30 | 37.47599 | -122.10578 | 5243 ft | 238 kts | 202° |
| 2026-05-04 06:31 | 37.46015 | -122.11034 | 4974 ft | 234 kts | 179° |
| 2026-05-04 06:31 | 37.44455 | -122.10629 | 4785 ft | 226 kts | 155° |
| 2026-05-04 06:31 | 37.43275 | -122.09436 | 4675 ft | 214 kts | 126° |
| 2026-05-04 06:31 | 37.42941 | -122.07130 | 4503 ft | 204 kts | 79° |
| 2026-05-04 06:32 | 37.43283 | -122.06003 | 4313 ft | 207 kts | 60° |
| 2026-05-04 06:33 | 37.50655 | -122.10348 | 3751 ft | 219 kts | 294° |
| 2026-05-04 06:34 | 37.51342 | -122.12064 | 3669 ft | 223 kts | 295° |
| 2026-05-04 06:34 | 37.52056 | -122.13825 | 3656 ft | 223 kts | 295° |
| 2026-05-04 06:34 | 37.52778 | -122.15526 | 3669 ft | 221 kts | 295° |
| 2026-05-04 06:34 | 37.53476 | -122.17211 | 3825 ft | 212 kts | 298° |
| 2026-05-04 06:35 | 37.54214 | -122.18805 | 3776 ft | 210 kts | 295° |
| 2026-05-04 06:36 | 37.58485 | -122.29098 | 2535 ft | 192 kts | 295° |
| 2026-05-04 06:37 | 37.59090 | -122.30556 | 2209 ft | 189 kts | 295° |
| 2026-05-04 06:37 | 37.59722 | -122.32059 | 1633 ft | 201 kts | 299° |
| 2026-05-04 06:37 | 37.60563 | -122.33357 | 1764 ft | 176 kts | 320° |
| 2026-05-04 06:37 | 37.61682 | -122.33815 | 1718 ft | 171 kts | 356° |
| 2026-05-04 06:38 | 37.62766 | -122.34352 | 995 ft | 176 kts | 303° |
| 2026-05-04 06:38 | 37.62772 | -122.35827 | 662 ft | 161 kts | 248° |
| 2026-05-04 06:40 | 37.59379 | -122.37373 | 868 ft | 176 kts | 354° |
| 2026-05-04 06:40 | 37.60567 | -122.37264 | 975 ft | 174 kts | 24° |
| 2026-05-04 06:40 | 37.61547 | -122.36300 | 690 ft | 174 kts | 38° |
| 2026-05-04 06:40 | 37.62400 | -122.35376 | 739 ft | 148 kts | 49° |
| 2026-05-04 06:41 | 37.62761 | -122.34228 | 718 ft | 149 kts | 91° |
| 2026-05-04 06:41 | 37.62327 | -122.33089 | 1016 ft | 150 kts | 148° |
| 2026-05-04 06:41 | 37.61364 | -122.33150 | 907 ft | 149 kts | 231° |
| 2026-05-04 06:41 | 37.61113 | -122.34471 | 455 ft | 169 kts | 257° |
| 2026-05-04 06:42 | 37.61327 | -122.35808 | 150 ft | 158 kts | 299° |
| 2026-05-04 06:42 | 37.61865 | -122.36873 | 18 ft | 127 kts | 293° |
| 2026-05-04 06:42 | 37.62202 | -122.37743 | 22 ft | 93 kts | 298° |
| 2026-05-04 06:44 | 37.62739 | -122.39013 | 24 ft | 0 kts | 300° |